sensor_id;sensor_type;location;lat;lon;timestamp;P1;durP1;ratioP1;P2;durP2;ratioP2
7833;SDS011;3962;42.696;23.354;2023-07-13T00:01:45;6.20;;;5.97;;
7833;SDS011;3962;42.696;23.354;2023-07-13T00:04:15;6.23;;;5.93;;
7833;SDS011;3962;42.696;23.354;2023-07-13T00:06:42;6.63;;;6.33;;
7833;SDS011;3962;42.696;23.354;2023-07-13T00:09:11;7.00;;;6.70;;
7833;SDS011;3962;42.696;23.354;2023-07-13T00:11:39;6.13;;;5.93;;
7833;SDS011;3962;42.696;23.354;2023-07-13T00:14:07;7.27;;;6.77;;
7833;SDS011;3962;42.696;23.354;2023-07-13T00:16:34;6.17;;;5.87;;
7833;SDS011;3962;42.696;23.354;2023-07-13T00:19:01;7.50;;;7.00;;
7833;SDS011;3962;42.696;23.354;2023-07-13T00:21:28;6.60;;;6.30;;
7833;SDS011;3962;42.696;23.354;2023-07-13T00:23:55;6.27;;;6.00;;
7833;SDS011;3962;42.696;23.354;2023-07-13T00:26:23;5.87;;;5.67;;
7833;SDS011;3962;42.696;23.354;2023-07-13T00:28:50;6.40;;;6.10;;
7833;SDS011;3962;42.696;23.354;2023-07-13T00:31:17;6.67;;;6.37;;
7833;SDS011;3962;42.696;23.354;2023-07-13T00:33:44;6.93;;;6.63;;
7833;SDS011;3962;42.696;23.354;2023-07-13T00:36:11;6.07;;;5.77;;
7833;SDS011;3962;42.696;23.354;2023-07-13T00:38:38;7.00;;;6.70;;
7833;SDS011;3962;42.696;23.354;2023-07-13T00:41:05;6.90;;;6.60;;
7833;SDS011;3962;42.696;23.354;2023-07-13T00:43:33;7.20;;;6.80;;
7833;SDS011;3962;42.696;23.354;2023-07-13T00:48:52;7.83;;;7.43;;
7833;SDS011;3962;42.696;23.354;2023-07-13T00:51:23;6.77;;;6.47;;
7833;SDS011;3962;42.696;23.354;2023-07-13T00:53:54;6.33;;;6.03;;
7833;SDS011;3962;42.696;23.354;2023-07-13T00:56:25;6.60;;;6.30;;
7833;SDS011;3962;42.696;23.354;2023-07-13T00:58:54;6.63;;;6.33;;
7833;SDS011;3962;42.696;23.354;2023-07-13T01:01:22;6.27;;;5.87;;
7833;SDS011;3962;42.696;23.354;2023-07-13T01:03:49;6.23;;;5.93;;
7833;SDS011;3962;42.696;23.354;2023-07-13T01:06:16;6.63;;;6.30;;
7833;SDS011;3962;42.696;23.354;2023-07-13T01:08:43;6.63;;;6.33;;
7833;SDS011;3962;42.696;23.354;2023-07-13T01:11:10;6.70;;;6.40;;
7833;SDS011;3962;42.696;23.354;2023-07-13T01:13:37;7.27;;;6.97;;
7833;SDS011;3962;42.696;23.354;2023-07-13T01:16:11;6.40;;;6.10;;
7833;SDS011;3962;42.696;23.354;2023-07-13T01:18:41;6.90;;;6.57;;
7833;SDS011;3962;42.696;23.354;2023-07-13T01:21:09;7.47;;;7.17;;
7833;SDS011;3962;42.696;23.354;2023-07-13T01:23:36;7.03;;;6.73;;
7833;SDS011;3962;42.696;23.354;2023-07-13T01:26:02;7.20;;;6.90;;
7833;SDS011;3962;42.696;23.354;2023-07-13T01:28:29;7.97;;;7.57;;
7833;SDS011;3962;42.696;23.354;2023-07-13T01:30:57;6.93;;;6.53;;
7833;SDS011;3962;42.696;23.354;2023-07-13T01:33:25;7.60;;;7.30;;
7833;SDS011;3962;42.696;23.354;2023-07-13T01:35:52;6.83;;;6.53;;
7833;SDS011;3962;42.696;23.354;2023-07-13T01:38:21;6.63;;;6.23;;
7833;SDS011;3962;42.696;23.354;2023-07-13T01:40:49;6.97;;;6.67;;
7833;SDS011;3962;42.696;23.354;2023-07-13T01:43:16;6.50;;;6.20;;
7833;SDS011;3962;42.696;23.354;2023-07-13T01:45:44;7.70;;;7.30;;
7833;SDS011;3962;42.696;23.354;2023-07-13T01:48:11;6.53;;;6.23;;
7833;SDS011;3962;42.696;23.354;2023-07-13T01:50:38;7.10;;;6.80;;
7833;SDS011;3962;42.696;23.354;2023-07-13T01:53:05;7.17;;;6.87;;
7833;SDS011;3962;42.696;23.354;2023-07-13T01:55:33;6.73;;;6.43;;
7833;SDS011;3962;42.696;23.354;2023-07-13T01:58:01;7.07;;;6.77;;
7833;SDS011;3962;42.696;23.354;2023-07-13T02:00:28;6.87;;;6.47;;
7833;SDS011;3962;42.696;23.354;2023-07-13T02:02:55;8.07;;;7.57;;
7833;SDS011;3962;42.696;23.354;2023-07-13T02:05:22;6.90;;;6.60;;
7833;SDS011;3962;42.696;23.354;2023-07-13T02:07:49;7.17;;;6.87;;
7833;SDS011;3962;42.696;23.354;2023-07-13T02:10:16;7.33;;;7.03;;
7833;SDS011;3962;42.696;23.354;2023-07-13T02:12:45;7.40;;;7.10;;
7833;SDS011;3962;42.696;23.354;2023-07-13T02:15:11;7.17;;;6.87;;
7833;SDS011;3962;42.696;23.354;2023-07-13T02:17:38;7.80;;;7.40;;
7833;SDS011;3962;42.696;23.354;2023-07-13T02:20:05;7.17;;;6.83;;
7833;SDS011;3962;42.696;23.354;2023-07-13T02:22:33;7.57;;;7.27;;
7833;SDS011;3962;42.696;23.354;2023-07-13T02:25:00;8.67;;;8.27;;
7833;SDS011;3962;42.696;23.354;2023-07-13T02:27:27;8.40;;;7.90;;
7833;SDS011;3962;42.696;23.354;2023-07-13T02:29:55;7.13;;;6.83;;
7833;SDS011;3962;42.696;23.354;2023-07-13T02:32:22;7.93;;;7.53;;
7833;SDS011;3962;42.696;23.354;2023-07-13T02:34:50;7.30;;;7.00;;
7833;SDS011;3962;42.696;23.354;2023-07-13T02:37:17;7.60;;;7.20;;
7833;SDS011;3962;42.696;23.354;2023-07-13T02:39:44;6.63;;;6.33;;
7833;SDS011;3962;42.696;23.354;2023-07-13T02:42:13;7.37;;;6.97;;
7833;SDS011;3962;42.696;23.354;2023-07-13T02:44:39;7.33;;;7.03;;
7833;SDS011;3962;42.696;23.354;2023-07-13T02:47:08;6.83;;;6.53;;
7833;SDS011;3962;42.696;23.354;2023-07-13T02:49:34;7.33;;;7.03;;
7833;SDS011;3962;42.696;23.354;2023-07-13T02:52:02;7.50;;;7.00;;
7833;SDS011;3962;42.696;23.354;2023-07-13T02:54:29;7.37;;;7.07;;
7833;SDS011;3962;42.696;23.354;2023-07-13T02:56:56;8.13;;;7.70;;
7833;SDS011;3962;42.696;23.354;2023-07-13T02:59:23;8.27;;;7.80;;
7833;SDS011;3962;42.696;23.354;2023-07-13T03:01:49;7.97;;;7.57;;
7833;SDS011;3962;42.696;23.354;2023-07-13T03:04:18;7.23;;;6.93;;
7833;SDS011;3962;42.696;23.354;2023-07-13T03:06:45;7.97;;;7.57;;
7833;SDS011;3962;42.696;23.354;2023-07-13T03:09:12;7.97;;;7.57;;
7833;SDS011;3962;42.696;23.354;2023-07-13T03:11:39;7.13;;;6.83;;
7833;SDS011;3962;42.696;23.354;2023-07-13T03:14:07;8.93;;;8.43;;
7833;SDS011;3962;42.696;23.354;2023-07-13T03:16:34;8.40;;;8.00;;
7833;SDS011;3962;42.696;23.354;2023-07-13T03:19:01;7.47;;;7.00;;
7833;SDS011;3962;42.696;23.354;2023-07-13T03:21:29;7.70;;;7.30;;
7833;SDS011;3962;42.696;23.354;2023-07-13T03:23:56;7.23;;;6.93;;
7833;SDS011;3962;42.696;23.354;2023-07-13T03:26:23;8.23;;;7.83;;
7833;SDS011;3962;42.696;23.354;2023-07-13T03:28:50;6.97;;;6.63;;
7833;SDS011;3962;42.696;23.354;2023-07-13T03:31:17;7.43;;;7.13;;
7833;SDS011;3962;42.696;23.354;2023-07-13T03:33:46;7.40;;;7.10;;
7833;SDS011;3962;42.696;23.354;2023-07-13T03:36:15;7.67;;;7.30;;
7833;SDS011;3962;42.696;23.354;2023-07-13T03:38:46;7.43;;;7.13;;
7833;SDS011;3962;42.696;23.354;2023-07-13T03:41:13;8.33;;;7.83;;
7833;SDS011;3962;42.696;23.354;2023-07-13T03:43:40;7.67;;;7.30;;
7833;SDS011;3962;42.696;23.354;2023-07-13T03:46:07;6.97;;;6.67;;
7833;SDS011;3962;42.696;23.354;2023-07-13T03:48:34;8.03;;;7.63;;
7833;SDS011;3962;42.696;23.354;2023-07-13T03:51:01;8.13;;;7.73;;
7833;SDS011;3962;42.696;23.354;2023-07-13T03:53:28;7.67;;;7.07;;
7833;SDS011;3962;42.696;23.354;2023-07-13T03:55:56;8.25;;;7.85;;
7833;SDS011;3962;42.696;23.354;2023-07-13T03:58:25;7.63;;;7.20;;
7833;SDS011;3962;42.696;23.354;2023-07-13T04:00:55;8.37;;;7.93;;
7833;SDS011;3962;42.696;23.354;2023-07-13T04:03:23;7.33;;;7.03;;
7833;SDS011;3962;42.696;23.354;2023-07-13T04:05:50;6.87;;;6.57;;
7833;SDS011;3962;42.696;23.354;2023-07-13T04:08:17;8.10;;;7.70;;
7833;SDS011;3962;42.696;23.354;2023-07-13T04:10:43;7.27;;;6.87;;
7833;SDS011;3962;42.696;23.354;2023-07-13T04:13:11;8.50;;;7.93;;
7833;SDS011;3962;42.696;23.354;2023-07-13T04:15:40;7.07;;;6.77;;
7833;SDS011;3962;42.696;23.354;2023-07-13T04:18:06;7.93;;;7.53;;
7833;SDS011;3962;42.696;23.354;2023-07-13T04:20:34;7.17;;;6.80;;
7833;SDS011;3962;42.696;23.354;2023-07-13T04:23:01;7.97;;;7.47;;
7833;SDS011;3962;42.696;23.354;2023-07-13T04:25:28;7.47;;;7.07;;
7833;SDS011;3962;42.696;23.354;2023-07-13T04:27:55;6.77;;;6.47;;
7833;SDS011;3962;42.696;23.354;2023-07-13T04:30:23;6.83;;;6.43;;
7833;SDS011;3962;42.696;23.354;2023-07-13T04:32:51;7.80;;;7.50;;
7833;SDS011;3962;42.696;23.354;2023-07-13T04:35:18;8.20;;;7.80;;
7833;SDS011;3962;42.696;23.354;2023-07-13T04:37:47;7.53;;;7.13;;
7833;SDS011;3962;42.696;23.354;2023-07-13T04:40:15;6.93;;;6.63;;
7833;SDS011;3962;42.696;23.354;2023-07-13T04:42:42;7.63;;;7.23;;
7833;SDS011;3962;42.696;23.354;2023-07-13T04:45:10;7.37;;;6.97;;
7833;SDS011;3962;42.696;23.354;2023-07-13T04:47:38;7.30;;;6.80;;
7833;SDS011;3962;42.696;23.354;2023-07-13T04:50:05;6.50;;;6.20;;
7833;SDS011;3962;42.696;23.354;2023-07-13T04:52:33;8.53;;;8.03;;
7833;SDS011;3962;42.696;23.354;2023-07-13T04:55:00;6.90;;;6.60;;
7833;SDS011;3962;42.696;23.354;2023-07-13T04:57:27;6.87;;;6.57;;
7833;SDS011;3962;42.696;23.354;2023-07-13T04:59:54;8.43;;;7.93;;
7833;SDS011;3962;42.696;23.354;2023-07-13T05:02:21;9.43;;;8.63;;
7833;SDS011;3962;42.696;23.354;2023-07-13T05:04:49;9.27;;;8.77;;
7833;SDS011;3962;42.696;23.354;2023-07-13T05:07:16;7.97;;;7.57;;
7833;SDS011;3962;42.696;23.354;2023-07-13T05:09:43;8.20;;;7.70;;
7833;SDS011;3962;42.696;23.354;2023-07-13T05:12:10;7.20;;;6.90;;
7833;SDS011;3962;42.696;23.354;2023-07-13T05:14:37;7.23;;;6.93;;
7833;SDS011;3962;42.696;23.354;2023-07-13T05:17:04;8.40;;;7.80;;
7833;SDS011;3962;42.696;23.354;2023-07-13T05:19:30;7.97;;;7.47;;
7833;SDS011;3962;42.696;23.354;2023-07-13T05:21:59;8.73;;;8.23;;
7833;SDS011;3962;42.696;23.354;2023-07-13T05:24:27;8.47;;;7.83;;
7833;SDS011;3962;42.696;23.354;2023-07-13T05:26:54;7.83;;;7.33;;
7833;SDS011;3962;42.696;23.354;2023-07-13T05:29:22;7.70;;;7.30;;
7833;SDS011;3962;42.696;23.354;2023-07-13T05:31:49;7.70;;;7.30;;
7833;SDS011;3962;42.696;23.354;2023-07-13T05:34:16;7.17;;;6.87;;
7833;SDS011;3962;42.696;23.354;2023-07-13T05:36:42;7.20;;;6.90;;
7833;SDS011;3962;42.696;23.354;2023-07-13T05:39:11;7.30;;;6.90;;
7833;SDS011;3962;42.696;23.354;2023-07-13T05:41:37;7.57;;;7.17;;
7833;SDS011;3962;42.696;23.354;2023-07-13T05:44:04;7.17;;;6.77;;
7833;SDS011;3962;42.696;23.354;2023-07-13T05:46:31;6.67;;;6.37;;
7833;SDS011;3962;42.696;23.354;2023-07-13T05:48:58;7.20;;;6.90;;
7833;SDS011;3962;42.696;23.354;2023-07-13T05:51:25;7.27;;;6.87;;
7833;SDS011;3962;42.696;23.354;2023-07-13T05:53:52;7.10;;;6.80;;
7833;SDS011;3962;42.696;23.354;2023-07-13T05:56:20;6.30;;;6.00;;
7833;SDS011;3962;42.696;23.354;2023-07-13T05:58:47;6.63;;;6.33;;
7833;SDS011;3962;42.696;23.354;2023-07-13T06:01:14;6.97;;;6.47;;
7833;SDS011;3962;42.696;23.354;2023-07-13T06:03:42;6.47;;;6.17;;
7833;SDS011;3962;42.696;23.354;2023-07-13T06:06:09;6.97;;;6.67;;
7833;SDS011;3962;42.696;23.354;2023-07-13T06:08:37;6.97;;;6.67;;
7833;SDS011;3962;42.696;23.354;2023-07-13T06:11:04;6.57;;;6.17;;
7833;SDS011;3962;42.696;23.354;2023-07-13T06:13:41;7.00;;;6.53;;
7833;SDS011;3962;42.696;23.354;2023-07-13T06:16:09;6.47;;;6.17;;
7833;SDS011;3962;42.696;23.354;2023-07-13T06:18:38;7.07;;;6.67;;
7833;SDS011;3962;42.696;23.354;2023-07-13T06:21:06;7.20;;;6.80;;
7833;SDS011;3962;42.696;23.354;2023-07-13T06:23:33;7.03;;;6.63;;
7833;SDS011;3962;42.696;23.354;2023-07-13T06:26:00;7.47;;;7.03;;
7833;SDS011;3962;42.696;23.354;2023-07-13T06:28:27;6.87;;;6.57;;
7833;SDS011;3962;42.696;23.354;2023-07-13T06:30:56;6.77;;;6.47;;
7833;SDS011;3962;42.696;23.354;2023-07-13T06:33:23;7.13;;;6.53;;
7833;SDS011;3962;42.696;23.354;2023-07-13T06:35:50;7.20;;;6.80;;
7833;SDS011;3962;42.696;23.354;2023-07-13T06:38:17;6.60;;;6.20;;
7833;SDS011;3962;42.696;23.354;2023-07-13T06:40:44;6.90;;;6.50;;
7833;SDS011;3962;42.696;23.354;2023-07-13T06:43:15;7.20;;;6.83;;
7833;SDS011;3962;42.696;23.354;2023-07-13T06:45:43;6.67;;;6.27;;
7833;SDS011;3962;42.696;23.354;2023-07-13T06:48:14;6.47;;;6.10;;
7833;SDS011;3962;42.696;23.354;2023-07-13T06:50:41;6.70;;;6.33;;
7833;SDS011;3962;42.696;23.354;2023-07-13T06:53:08;6.53;;;6.23;;
7833;SDS011;3962;42.696;23.354;2023-07-13T06:55:35;6.67;;;6.27;;
7833;SDS011;3962;42.696;23.354;2023-07-13T06:58:03;6.53;;;6.03;;
7833;SDS011;3962;42.696;23.354;2023-07-13T07:00:30;5.90;;;5.60;;
7833;SDS011;3962;42.696;23.354;2023-07-13T07:02:58;6.67;;;6.27;;
7833;SDS011;3962;42.696;23.354;2023-07-13T07:05:26;6.40;;;6.00;;
7833;SDS011;3962;42.696;23.354;2023-07-13T07:07:54;5.77;;;5.47;;
7833;SDS011;3962;42.696;23.354;2023-07-13T07:10:21;5.70;;;5.40;;
7833;SDS011;3962;42.696;23.354;2023-07-13T07:12:48;4.90;;;4.60;;
7833;SDS011;3962;42.696;23.354;2023-07-13T07:15:15;5.93;;;5.63;;
7833;SDS011;3962;42.696;23.354;2023-07-13T07:17:43;5.47;;;5.17;;
7833;SDS011;3962;42.696;23.354;2023-07-13T07:20:10;4.87;;;4.67;;
7833;SDS011;3962;42.696;23.354;2023-07-13T07:22:39;5.07;;;4.87;;
7833;SDS011;3962;42.696;23.354;2023-07-13T07:25:06;5.63;;;5.23;;
7833;SDS011;3962;42.696;23.354;2023-07-13T07:27:33;5.60;;;5.30;;
7833;SDS011;3962;42.696;23.354;2023-07-13T07:30:00;5.10;;;4.90;;
7833;SDS011;3962;42.696;23.354;2023-07-13T07:32:28;5.17;;;4.87;;
7833;SDS011;3962;42.696;23.354;2023-07-13T07:34:55;4.60;;;4.40;;
7833;SDS011;3962;42.696;23.354;2023-07-13T07:37:24;5.30;;;5.00;;
7833;SDS011;3962;42.696;23.354;2023-07-13T07:39:52;4.93;;;4.63;;
7833;SDS011;3962;42.696;23.354;2023-07-13T07:42:19;5.87;;;5.57;;
7833;SDS011;3962;42.696;23.354;2023-07-13T07:44:46;4.80;;;4.60;;
7833;SDS011;3962;42.696;23.354;2023-07-13T07:47:13;4.60;;;4.40;;
7833;SDS011;3962;42.696;23.354;2023-07-13T07:49:40;5.50;;;5.10;;
7833;SDS011;3962;42.696;23.354;2023-07-13T07:52:15;4.87;;;4.67;;
7833;SDS011;3962;42.696;23.354;2023-07-13T07:54:46;4.70;;;4.50;;
7833;SDS011;3962;42.696;23.354;2023-07-13T08:03:26;5.20;;;5.00;;
7833;SDS011;3962;42.696;23.354;2023-07-13T08:06:08;4.55;;;4.35;;
7833;SDS011;3962;42.696;23.354;2023-07-13T08:08:50;4.57;;;4.32;;
7833;SDS011;3962;42.696;23.354;2023-07-13T08:11:31;4.60;;;4.28;;
7833;SDS011;3962;42.696;23.354;2023-07-13T08:13:59;4.80;;;4.60;;
7833;SDS011;3962;42.696;23.354;2023-07-13T08:16:30;4.65;;;4.45;;
7833;SDS011;3962;42.696;23.354;2023-07-13T08:19:13;5.45;;;5.10;;
7833;SDS011;3962;42.696;23.354;2023-07-13T08:21:40;4.50;;;4.20;;
7833;SDS011;3962;42.696;23.354;2023-07-13T08:24:14;5.05;;;4.75;;
7833;SDS011;3962;42.696;23.354;2023-07-13T08:26:43;4.75;;;4.45;;
7833;SDS011;3962;42.696;23.354;2023-07-13T08:29:11;4.38;;;4.07;;
7833;SDS011;3962;42.696;23.354;2023-07-13T08:31:40;5.10;;;4.80;;
7833;SDS011;3962;42.696;23.354;2023-07-13T08:34:07;4.40;;;4.20;;
7833;SDS011;3962;42.696;23.354;2023-07-13T08:36:36;4.75;;;4.45;;
7833;SDS011;3962;42.696;23.354;2023-07-13T08:39:12;4.70;;;4.40;;
7833;SDS011;3962;42.696;23.354;2023-07-13T08:41:39;5.10;;;4.70;;
7833;SDS011;3962;42.696;23.354;2023-07-13T08:44:07;4.40;;;4.20;;
7833;SDS011;3962;42.696;23.354;2023-07-13T08:46:47;4.97;;;4.68;;
7833;SDS011;3962;42.696;23.354;2023-07-13T08:49:17;4.88;;;4.57;;
7833;SDS011;3962;42.696;23.354;2023-07-13T08:51:49;4.95;;;4.75;;
7833;SDS011;3962;42.696;23.354;2023-07-13T08:54:21;4.65;;;4.43;;
7833;SDS011;3962;42.696;23.354;2023-07-13T08:56:54;4.90;;;4.60;;
7833;SDS011;3962;42.696;23.354;2023-07-13T08:59:27;5.38;;;5.07;;
7833;SDS011;3962;42.696;23.354;2023-07-13T09:02:01;4.25;;;4.05;;
7833;SDS011;3962;42.696;23.354;2023-07-13T09:04:48;4.63;;;4.43;;
7833;SDS011;3962;42.696;23.354;2023-07-13T09:07:20;5.28;;;4.88;;
7833;SDS011;3962;42.696;23.354;2023-07-13T09:09:58;4.45;;;4.25;;
7833;SDS011;3962;42.696;23.354;2023-07-13T09:12:39;4.95;;;4.65;;
7833;SDS011;3962;42.696;23.354;2023-07-13T09:15:21;5.15;;;4.78;;
7833;SDS011;3962;42.696;23.354;2023-07-13T09:17:58;4.47;;;4.18;;
7833;SDS011;3962;42.696;23.354;2023-07-13T09:20:31;5.40;;;5.10;;
7833;SDS011;3962;42.696;23.354;2023-07-13T09:23:01;4.68;;;4.47;;
7833;SDS011;3962;42.696;23.354;2023-07-13T09:25:34;4.65;;;4.45;;
7833;SDS011;3962;42.696;23.354;2023-07-13T09:28:05;5.13;;;4.82;;
7833;SDS011;3962;42.696;23.354;2023-07-13T09:30:38;4.47;;;4.28;;
7833;SDS011;3962;42.696;23.354;2023-07-13T09:33:12;5.07;;;4.63;;
7833;SDS011;3962;42.696;23.354;2023-07-13T09:35:39;4.15;;;3.95;;
7833;SDS011;3962;42.696;23.354;2023-07-13T09:38:11;5.22;;;4.75;;
7833;SDS011;3962;42.696;23.354;2023-07-13T09:40:52;4.60;;;4.35;;
7833;SDS011;3962;42.696;23.354;2023-07-13T09:43:26;4.95;;;4.65;;
7833;SDS011;3962;42.696;23.354;2023-07-13T09:45:54;5.25;;;4.75;;
7833;SDS011;3962;42.696;23.354;2023-07-13T09:48:23;4.35;;;4.07;;
7833;SDS011;3962;42.696;23.354;2023-07-13T09:50:54;4.80;;;4.50;;
7833;SDS011;3962;42.696;23.354;2023-07-13T09:53:22;4.90;;;4.47;;
7833;SDS011;3962;42.696;23.354;2023-07-13T09:55:49;4.30;;;4.10;;
7833;SDS011;3962;42.696;23.354;2023-07-13T09:58:18;4.93;;;4.60;;
7833;SDS011;3962;42.696;23.354;2023-07-13T10:00:53;5.63;;;5.15;;
7833;SDS011;3962;42.696;23.354;2023-07-13T10:03:25;4.50;;;4.20;;
7833;SDS011;3962;42.696;23.354;2023-07-13T10:05:54;4.45;;;4.15;;
7833;SDS011;3962;42.696;23.354;2023-07-13T10:08:31;4.63;;;4.32;;
7833;SDS011;3962;42.696;23.354;2023-07-13T10:11:08;5.38;;;4.95;;
7833;SDS011;3962;42.696;23.354;2023-07-13T10:13:37;4.40;;;4.03;;
7833;SDS011;3962;42.696;23.354;2023-07-13T10:16:08;5.30;;;4.90;;
7833;SDS011;3962;42.696;23.354;2023-07-13T10:18:42;4.50;;;4.20;;
7833;SDS011;3962;42.696;23.354;2023-07-13T10:21:17;4.50;;;4.20;;
7833;SDS011;3962;42.696;23.354;2023-07-13T10:23:47;4.18;;;3.97;;
7833;SDS011;3962;42.696;23.354;2023-07-13T10:26:19;4.60;;;4.30;;
7833;SDS011;3962;42.696;23.354;2023-07-13T10:28:51;4.30;;;4.10;;
7833;SDS011;3962;42.696;23.354;2023-07-13T10:31:22;4.00;;;3.70;;
7833;SDS011;3962;42.696;23.354;2023-07-13T10:33:51;4.10;;;3.90;;
7833;SDS011;3962;42.696;23.354;2023-07-13T10:36:20;4.00;;;3.70;;
7833;SDS011;3962;42.696;23.354;2023-07-13T10:38:56;4.22;;;4.03;;
7833;SDS011;3962;42.696;23.354;2023-07-13T10:41:26;3.72;;;3.53;;
7833;SDS011;3962;42.696;23.354;2023-07-13T10:43:56;4.13;;;3.88;;
7833;SDS011;3962;42.696;23.354;2023-07-13T10:46:26;3.83;;;3.63;;
7833;SDS011;3962;42.696;23.354;2023-07-13T10:48:58;4.03;;;3.83;;
7833;SDS011;3962;42.696;23.354;2023-07-13T10:51:27;4.18;;;3.92;;
7833;SDS011;3962;42.696;23.354;2023-07-13T10:56:48;5.30;;;4.53;;
7833;SDS011;3962;42.696;23.354;2023-07-13T10:59:17;4.55;;;3.90;;
7833;SDS011;3962;42.696;23.354;2023-07-13T11:01:54;3.95;;;3.75;;
7833;SDS011;3962;42.696;23.354;2023-07-13T11:04:24;3.70;;;3.50;;
7833;SDS011;3962;42.696;23.354;2023-07-13T11:06:53;3.60;;;3.40;;
7833;SDS011;3962;42.696;23.354;2023-07-13T11:09:31;3.88;;;3.63;;
7833;SDS011;3962;42.696;23.354;2023-07-13T11:12:02;4.53;;;4.22;;
7833;SDS011;3962;42.696;23.354;2023-07-13T11:14:34;5.68;;;5.18;;
7833;SDS011;3962;42.696;23.354;2023-07-13T11:20:08;3.95;;;3.75;;
7833;SDS011;3962;42.696;23.354;2023-07-13T11:22:46;3.85;;;3.65;;
7833;SDS011;3962;42.696;23.354;2023-07-13T11:25:24;3.50;;;3.40;;
7833;SDS011;3962;42.696;23.354;2023-07-13T11:28:04;3.90;;;3.70;;
7833;SDS011;3962;42.696;23.354;2023-07-13T11:30:40;3.55;;;3.35;;
7833;SDS011;3962;42.696;23.354;2023-07-13T11:33:14;4.20;;;3.72;;
7833;SDS011;3962;42.696;23.354;2023-07-13T11:35:52;3.50;;;3.30;;
7833;SDS011;3962;42.696;23.354;2023-07-13T11:38:28;4.00;;;3.80;;
7833;SDS011;3962;42.696;23.354;2023-07-13T11:40:59;3.75;;;3.55;;
7833;SDS011;3962;42.696;23.354;2023-07-13T11:43:29;5.60;;;4.60;;
7833;SDS011;3962;42.696;23.354;2023-07-13T11:45:58;4.03;;;3.72;;
7833;SDS011;3962;42.696;23.354;2023-07-13T11:48:26;4.93;;;4.35;;
7833;SDS011;3962;42.696;23.354;2023-07-13T11:50:58;4.30;;;4.00;;
7833;SDS011;3962;42.696;23.354;2023-07-13T11:53:39;4.18;;;3.85;;
7833;SDS011;3962;42.696;23.354;2023-07-13T11:56:15;4.10;;;3.90;;
7833;SDS011;3962;42.696;23.354;2023-07-13T11:58:42;3.75;;;3.55;;
7833;SDS011;3962;42.696;23.354;2023-07-13T12:01:15;4.22;;;3.97;;
7833;SDS011;3962;42.696;23.354;2023-07-13T12:03:46;4.90;;;4.50;;
7833;SDS011;3962;42.696;23.354;2023-07-13T12:06:23;4.00;;;3.80;;
7833;SDS011;3962;42.696;23.354;2023-07-13T12:08:55;4.05;;;3.85;;
7833;SDS011;3962;42.696;23.354;2023-07-13T12:11:23;4.07;;;3.88;;
7833;SDS011;3962;42.696;23.354;2023-07-13T12:13:50;4.35;;;4.15;;
7833;SDS011;3962;42.696;23.354;2023-07-13T12:16:20;3.78;;;3.58;;
7833;SDS011;3962;42.696;23.354;2023-07-13T12:18:52;4.40;;;4.10;;
7833;SDS011;3962;42.696;23.354;2023-07-13T12:21:22;3.60;;;3.40;;
7833;SDS011;3962;42.696;23.354;2023-07-13T12:23:57;4.30;;;3.95;;
7833;SDS011;3962;42.696;23.354;2023-07-13T12:26:27;4.40;;;4.13;;
7833;SDS011;3962;42.696;23.354;2023-07-13T12:28:56;4.20;;;4.00;;
7833;SDS011;3962;42.696;23.354;2023-07-13T12:31:29;4.40;;;4.10;;
7833;SDS011;3962;42.696;23.354;2023-07-13T12:33:59;4.85;;;4.45;;
7833;SDS011;3962;42.696;23.354;2023-07-13T12:36:31;3.85;;;3.58;;
7833;SDS011;3962;42.696;23.354;2023-07-13T12:39:01;3.67;;;3.47;;
7833;SDS011;3962;42.696;23.354;2023-07-13T12:41:40;3.97;;;3.78;;
7833;SDS011;3962;42.696;23.354;2023-07-13T12:44:12;4.10;;;3.90;;
7833;SDS011;3962;42.696;23.354;2023-07-13T12:46:51;3.90;;;3.70;;
7833;SDS011;3962;42.696;23.354;2023-07-13T12:51:55;3.88;;;3.67;;
7833;SDS011;3962;42.696;23.354;2023-07-13T12:54:22;3.90;;;3.70;;
7833;SDS011;3962;42.696;23.354;2023-07-13T12:56:49;3.92;;;3.72;;
7833;SDS011;3962;42.696;23.354;2023-07-13T12:59:22;4.03;;;3.78;;
7833;SDS011;3962;42.696;23.354;2023-07-13T13:01:51;4.90;;;4.50;;
7833;SDS011;3962;42.696;23.354;2023-07-13T13:04:19;3.80;;;3.60;;
7833;SDS011;3962;42.696;23.354;2023-07-13T13:06:47;3.75;;;3.55;;
7833;SDS011;3962;42.696;23.354;2023-07-13T13:09:16;5.35;;;4.85;;
7833;SDS011;3962;42.696;23.354;2023-07-13T13:11:45;3.85;;;3.55;;
7833;SDS011;3962;42.696;23.354;2023-07-13T13:14:12;4.40;;;4.10;;
7833;SDS011;3962;42.696;23.354;2023-07-13T13:16:43;4.47;;;4.18;;
7833;SDS011;3962;42.696;23.354;2023-07-13T13:19:15;4.40;;;4.00;;
7833;SDS011;3962;42.696;23.354;2023-07-13T13:21:44;4.50;;;4.20;;
7833;SDS011;3962;42.696;23.354;2023-07-13T13:24:12;4.25;;;3.55;;
7833;SDS011;3962;42.696;23.354;2023-07-13T13:26:42;3.65;;;3.45;;
7833;SDS011;3962;42.696;23.354;2023-07-13T13:29:12;3.97;;;3.70;;
7833;SDS011;3962;42.696;23.354;2023-07-13T13:31:40;4.47;;;4.15;;
7833;SDS011;3962;42.696;23.354;2023-07-13T13:34:08;4.30;;;3.92;;
7833;SDS011;3962;42.696;23.354;2023-07-13T13:36:37;4.13;;;3.83;;
7833;SDS011;3962;42.696;23.354;2023-07-13T13:39:05;3.85;;;3.65;;
7833;SDS011;3962;42.696;23.354;2023-07-13T13:41:44;3.65;;;3.45;;
7833;SDS011;3962;42.696;23.354;2023-07-13T13:44:13;3.90;;;3.70;;
7833;SDS011;3962;42.696;23.354;2023-07-13T13:46:41;4.35;;;4.00;;
7833;SDS011;3962;42.696;23.354;2023-07-13T13:49:11;4.18;;;3.88;;
7833;SDS011;3962;42.696;23.354;2023-07-13T13:51:41;4.00;;;3.80;;
7833;SDS011;3962;42.696;23.354;2023-07-13T13:54:10;3.90;;;3.70;;
7833;SDS011;3962;42.696;23.354;2023-07-13T13:56:38;4.07;;;3.88;;
7833;SDS011;3962;42.696;23.354;2023-07-13T13:59:07;4.00;;;3.70;;
7833;SDS011;3962;42.696;23.354;2023-07-13T14:01:35;3.85;;;3.65;;
7833;SDS011;3962;42.696;23.354;2023-07-13T14:04:02;4.00;;;3.70;;
7833;SDS011;3962;42.696;23.354;2023-07-13T14:06:30;4.85;;;4.45;;
7833;SDS011;3962;42.696;23.354;2023-07-13T14:08:57;4.07;;;3.78;;
7833;SDS011;3962;42.696;23.354;2023-07-13T14:11:24;3.80;;;3.60;;
7833;SDS011;3962;42.696;23.354;2023-07-13T14:13:53;3.83;;;3.60;;
7833;SDS011;3962;42.696;23.354;2023-07-13T14:16:25;4.85;;;4.55;;
7833;SDS011;3962;42.696;23.354;2023-07-13T14:18:54;4.65;;;4.20;;
7833;SDS011;3962;42.696;23.354;2023-07-13T14:21:23;4.30;;;3.90;;
7833;SDS011;3962;42.696;23.354;2023-07-13T14:23:51;4.00;;;3.80;;
7833;SDS011;3962;42.696;23.354;2023-07-13T14:26:18;7.07;;;4.55;;
7833;SDS011;3962;42.696;23.354;2023-07-13T14:28:49;4.60;;;4.30;;
7833;SDS011;3962;42.696;23.354;2023-07-13T14:31:17;4.13;;;3.92;;
7833;SDS011;3962;42.696;23.354;2023-07-13T14:33:46;4.53;;;4.22;;
7833;SDS011;3962;42.696;23.354;2023-07-13T14:36:18;4.63;;;3.83;;
7833;SDS011;3962;42.696;23.354;2023-07-13T14:38:51;4.00;;;3.70;;
7833;SDS011;3962;42.696;23.354;2023-07-13T14:41:19;3.83;;;3.63;;
7833;SDS011;3962;42.696;23.354;2023-07-13T14:43:47;3.95;;;3.75;;
7833;SDS011;3962;42.696;23.354;2023-07-13T14:46:18;3.80;;;3.60;;
7833;SDS011;3962;42.696;23.354;2023-07-13T14:48:55;4.38;;;4.07;;
7833;SDS011;3962;42.696;23.354;2023-07-13T14:51:28;4.65;;;4.25;;
7833;SDS011;3962;42.696;23.354;2023-07-13T14:53:56;3.90;;;3.70;;
7833;SDS011;3962;42.696;23.354;2023-07-13T14:56:23;4.88;;;4.45;;
7833;SDS011;3962;42.696;23.354;2023-07-13T14:58:51;8.93;;;5.47;;
7833;SDS011;3962;42.696;23.354;2023-07-13T15:01:18;3.80;;;3.60;;
7833;SDS011;3962;42.696;23.354;2023-07-13T15:03:48;4.97;;;4.57;;
7833;SDS011;3962;42.696;23.354;2023-07-13T15:06:18;3.72;;;3.53;;
7833;SDS011;3962;42.696;23.354;2023-07-13T15:08:45;3.80;;;3.60;;
7833;SDS011;3962;42.696;23.354;2023-07-13T15:11:13;4.20;;;4.00;;
7833;SDS011;3962;42.696;23.354;2023-07-13T15:13:40;3.88;;;3.67;;
7833;SDS011;3962;42.696;23.354;2023-07-13T15:16:13;4.07;;;3.88;;
7833;SDS011;3962;42.696;23.354;2023-07-13T15:18:43;3.90;;;3.70;;
7833;SDS011;3962;42.696;23.354;2023-07-13T15:21:11;3.80;;;3.60;;
7833;SDS011;3962;42.696;23.354;2023-07-13T15:23:42;4.00;;;3.80;;
7833;SDS011;3962;42.696;23.354;2023-07-13T15:26:11;4.15;;;3.85;;
7833;SDS011;3962;42.696;23.354;2023-07-13T15:28:40;4.03;;;3.83;;
7833;SDS011;3962;42.696;23.354;2023-07-13T15:31:17;4.35;;;4.05;;